sensor_id;sensor_type;location;lat;lon;timestamp;temperature;humidity
60860;DHT22;46694;54.382;9.708;2023-08-06T00:01:36;17.50;99.90
60860;DHT22;46694;54.382;9.708;2023-08-06T00:04:16;17.50;99.90
60860;DHT22;46694;54.382;9.708;2023-08-06T00:06:56;17.50;99.90
60860;DHT22;46694;54.382;9.708;2023-08-06T00:09:35;17.50;99.90
60860;DHT22;46694;54.382;9.708;2023-08-06T00:12:15;17.50;99.90
60860;DHT22;46694;54.382;9.708;2023-08-06T00:14:54;17.50;99.90
60860;DHT22;46694;54.382;9.708;2023-08-06T00:17:34;17.50;99.90
60860;DHT22;46694;54.382;9.708;2023-08-06T00:20:14;17.40;99.90
60860;DHT22;46694;54.382;9.708;2023-08-06T00:22:53;17.40;99.90
60860;DHT22;46694;54.382;9.708;2023-08-06T00:25:33;17.40;99.90
60860;DHT22;46694;54.382;9.708;2023-08-06T00:28:12;17.40;99.90
60860;DHT22;46694;54.382;9.708;2023-08-06T00:30:55;17.30;99.90
60860;DHT22;46694;54.382;9.708;2023-08-06T00:33:35;17.30;99.90
60860;DHT22;46694;54.382;9.708;2023-08-06T00:36:14;17.40;99.90
60860;DHT22;46694;54.382;9.708;2023-08-06T00:38:54;17.40;99.90
60860;DHT22;46694;54.382;9.708;2023-08-06T00:41:35;17.30;99.90
60860;DHT22;46694;54.382;9.708;2023-08-06T00:44:14;17.30;99.90
60860;DHT22;46694;54.382;9.708;2023-08-06T00:46:54;17.30;99.90
60860;DHT22;46694;54.382;9.708;2023-08-06T00:49:37;17.30;99.90
60860;DHT22;46694;54.382;9.708;2023-08-06T00:52:18;17.30;99.90
60860;DHT22;46694;54.382;9.708;2023-08-06T00:54:57;17.30;99.90
60860;DHT22;46694;54.382;9.708;2023-08-06T00:57:37;17.20;99.90
60860;DHT22;46694;54.382;9.708;2023-08-06T01:00:17;17.20;99.90
60860;DHT22;46694;54.382;9.708;2023-08-06T01:02:56;17.20;99.90
60860;DHT22;46694;54.382;9.708;2023-08-06T01:05:36;17.20;99.90
60860;DHT22;46694;54.382;9.708;2023-08-06T01:09:27;17.20;99.90
60860;DHT22;46694;54.382;9.708;2023-08-06T01:12:44;17.20;99.90
60860;DHT22;46694;54.382;9.708;2023-08-06T01:15:10;17.10;99.90
60860;DHT22;46694;54.382;9.708;2023-08-06T01:17:53;17.10;99.90
60860;DHT22;46694;54.382;9.708;2023-08-06T01:20:32;17.00;99.90
60860;DHT22;46694;54.382;9.708;2023-08-06T01:23:12;17.00;99.90
60860;DHT22;46694;54.382;9.708;2023-08-06T01:29:31;17.00;99.90
60860;DHT22;46694;54.382;9.708;2023-08-06T01:32:15;16.90;99.90
60860;DHT22;46694;54.382;9.708;2023-08-06T01:34:55;16.90;99.90
60860;DHT22;46694;54.382;9.708;2023-08-06T01:37:36;16.90;99.90
60860;DHT22;46694;54.382;9.708;2023-08-06T01:40:15;16.90;99.90
60860;DHT22;46694;54.382;9.708;2023-08-06T01:42:55;16.90;99.90
60860;DHT22;46694;54.382;9.708;2023-08-06T01:45:35;16.90;99.90
60860;DHT22;46694;54.382;9.708;2023-08-06T01:48:14;16.90;99.90
60860;DHT22;46694;54.382;9.708;2023-08-06T01:50:54;16.90;99.90
60860;DHT22;46694;54.382;9.708;2023-08-06T01:53:33;16.90;99.90
60860;DHT22;46694;54.382;9.708;2023-08-06T01:56:13;16.90;99.90
60860;DHT22;46694;54.382;9.708;2023-08-06T01:58:53;17.00;99.90
60860;DHT22;46694;54.382;9.708;2023-08-06T02:01:32;17.00;99.90
60860;DHT22;46694;54.382;9.708;2023-08-06T02:04:11;16.90;99.90
60860;DHT22;46694;54.382;9.708;2023-08-06T02:06:51;16.90;99.90
60860;DHT22;46694;54.382;9.708;2023-08-06T02:09:31;17.00;99.90
60860;DHT22;46694;54.382;9.708;2023-08-06T02:12:10;17.00;99.90
60860;DHT22;46694;54.382;9.708;2023-08-06T02:14:50;16.90;99.90
60860;DHT22;46694;54.382;9.708;2023-08-06T02:17:29;16.90;99.90
60860;DHT22;46694;54.382;9.708;2023-08-06T02:20:09;16.90;99.90
60860;DHT22;46694;54.382;9.708;2023-08-06T02:22:49;16.90;99.90
60860;DHT22;46694;54.382;9.708;2023-08-06T02:25:29;16.90;99.90
60860;DHT22;46694;54.382;9.708;2023-08-06T02:28:08;16.90;99.90
60860;DHT22;46694;54.382;9.708;2023-08-06T02:30:51;16.90;99.90
60860;DHT22;46694;54.382;9.708;2023-08-06T02:33:31;16.90;99.90
60860;DHT22;46694;54.382;9.708;2023-08-06T02:36:11;16.90;99.90
60860;DHT22;46694;54.382;9.708;2023-08-06T02:38:50;16.90;99.90
60860;DHT22;46694;54.382;9.708;2023-08-06T02:41:30;16.90;99.90
60860;DHT22;46694;54.382;9.708;2023-08-06T02:44:09;16.90;99.90
60860;DHT22;46694;54.382;9.708;2023-08-06T02:46:49;16.90;99.90
60860;DHT22;46694;54.382;9.708;2023-08-06T02:49:28;16.90;99.90
60860;DHT22;46694;54.382;9.708;2023-08-06T02:52:08;16.90;99.90
60860;DHT22;46694;54.382;9.708;2023-08-06T02:54:47;16.90;99.90
60860;DHT22;46694;54.382;9.708;2023-08-06T02:57:27;16.90;99.90
60860;DHT22;46694;54.382;9.708;2023-08-06T03:00:26;16.90;99.90
60860;DHT22;46694;54.382;9.708;2023-08-06T03:03:05;16.80;99.90
60860;DHT22;46694;54.382;9.708;2023-08-06T03:05:52;16.80;99.90
60860;DHT22;46694;54.382;9.708;2023-08-06T03:08:32;16.90;99.90
60860;DHT22;46694;54.382;9.708;2023-08-06T03:11:12;16.80;99.90
60860;DHT22;46694;54.382;9.708;2023-08-06T03:13:51;16.80;99.90
60860;DHT22;46694;54.382;9.708;2023-08-06T03:16:31;16.80;99.90
60860;DHT22;46694;54.382;9.708;2023-08-06T03:19:11;16.80;99.90
60860;DHT22;46694;54.382;9.708;2023-08-06T03:21:51;16.90;99.90
60860;DHT22;46694;54.382;9.708;2023-08-06T03:24:30;16.90;99.90
60860;DHT22;46694;54.382;9.708;2023-08-06T03:27:10;16.90;99.90
60860;DHT22;46694;54.382;9.708;2023-08-06T03:29:50;16.90;99.90
60860;DHT22;46694;54.382;9.708;2023-08-06T03:32:29;16.80;99.90
60860;DHT22;46694;54.382;9.708;2023-08-06T03:35:09;16.90;99.90
60860;DHT22;46694;54.382;9.708;2023-08-06T03:37:48;16.90;99.90
60860;DHT22;46694;54.382;9.708;2023-08-06T03:40:28;16.90;99.90
60860;DHT22;46694;54.382;9.708;2023-08-06T03:43:08;16.90;99.90
60860;DHT22;46694;54.382;9.708;2023-08-06T03:45:48;16.90;99.90
60860;DHT22;46694;54.382;9.708;2023-08-06T03:48:27;16.90;99.90
60860;DHT22;46694;54.382;9.708;2023-08-06T03:51:07;16.90;99.90
60860;DHT22;46694;54.382;9.708;2023-08-06T03:53:46;17.00;99.90
60860;DHT22;46694;54.382;9.708;2023-08-06T03:56:26;17.00;99.90
60860;DHT22;46694;54.382;9.708;2023-08-06T03:59:06;17.00;99.90
60860;DHT22;46694;54.382;9.708;2023-08-06T04:01:46;17.00;99.90
60860;DHT22;46694;54.382;9.708;2023-08-06T04:04:25;17.00;99.90
60860;DHT22;46694;54.382;9.708;2023-08-06T04:07:05;17.00;99.90
60860;DHT22;46694;54.382;9.708;2023-08-06T04:09:52;17.00;99.90
60860;DHT22;46694;54.382;9.708;2023-08-06T04:12:39;17.00;99.90
60860;DHT22;46694;54.382;9.708;2023-08-06T04:15:18;17.00;99.90
60860;DHT22;46694;54.382;9.708;2023-08-06T04:17:58;16.90;99.90
60860;DHT22;46694;54.382;9.708;2023-08-06T04:20:45;16.90;99.90
60860;DHT22;46694;54.382;9.708;2023-08-06T04:23:25;16.80;99.90
60860;DHT22;46694;54.382;9.708;2023-08-06T04:26:05;16.80;99.90
60860;DHT22;46694;54.382;9.708;2023-08-06T04:28:44;16.70;99.90
60860;DHT22;46694;54.382;9.708;2023-08-06T04:31:24;16.70;99.90
60860;DHT22;46694;54.382;9.708;2023-08-06T04:34:03;16.70;99.90
60860;DHT22;46694;54.382;9.708;2023-08-06T04:36:43;16.70;99.90
60860;DHT22;46694;54.382;9.708;2023-08-06T04:39:22;16.70;99.90
60860;DHT22;46694;54.382;9.708;2023-08-06T04:42:02;16.70;99.90
60860;DHT22;46694;54.382;9.708;2023-08-06T04:44:42;16.80;99.90
60860;DHT22;46694;54.382;9.708;2023-08-06T04:47:21;16.80;99.90
60860;DHT22;46694;54.382;9.708;2023-08-06T04:50:01;16.80;99.90
60860;DHT22;46694;54.382;9.708;2023-08-06T04:52:40;16.90;99.90
60860;DHT22;46694;54.382;9.708;2023-08-06T04:55:20;16.90;99.90
60860;DHT22;46694;54.382;9.708;2023-08-06T04:58:00;16.90;99.90
60860;DHT22;46694;54.382;9.708;2023-08-06T05:00:39;16.90;99.90
60860;DHT22;46694;54.382;9.708;2023-08-06T05:03:19;16.90;99.90
60860;DHT22;46694;54.382;9.708;2023-08-06T05:06:00;16.90;99.90
60860;DHT22;46694;54.382;9.708;2023-08-06T05:08:39;16.90;99.90
60860;DHT22;46694;54.382;9.708;2023-08-06T05:11:19;16.90;99.90
60860;DHT22;46694;54.382;9.708;2023-08-06T05:13:58;16.90;99.90
60860;DHT22;46694;54.382;9.708;2023-08-06T05:16:38;16.90;99.90
60860;DHT22;46694;54.382;9.708;2023-08-06T05:19:18;16.90;99.90
60860;DHT22;46694;54.382;9.708;2023-08-06T05:21:57;16.80;99.90
60860;DHT22;46694;54.382;9.708;2023-08-06T05:24:37;16.80;99.90
60860;DHT22;46694;54.382;9.708;2023-08-06T05:27:16;16.80;99.90
60860;DHT22;46694;54.382;9.708;2023-08-06T05:29:58;16.90;99.90
60860;DHT22;46694;54.382;9.708;2023-08-06T05:32:37;16.90;99.90
60860;DHT22;46694;54.382;9.708;2023-08-06T05:35:17;16.90;99.90
60860;DHT22;46694;54.382;9.708;2023-08-06T05:37:56;16.90;99.90
60860;DHT22;46694;54.382;9.708;2023-08-06T05:40:36;16.90;99.90
60860;DHT22;46694;54.382;9.708;2023-08-06T05:43:16;16.90;99.90
60860;DHT22;46694;54.382;9.708;2023-08-06T05:45:56;16.90;99.90
60860;DHT22;46694;54.382;9.708;2023-08-06T05:48:36;16.90;99.90
60860;DHT22;46694;54.382;9.708;2023-08-06T05:51:15;16.90;99.90
60860;DHT22;46694;54.382;9.708;2023-08-06T05:53:56;16.90;99.90
60860;DHT22;46694;54.382;9.708;2023-08-06T05:56:35;16.90;99.90
60860;DHT22;46694;54.382;9.708;2023-08-06T05:59:14;16.90;99.90
60860;DHT22;46694;54.382;9.708;2023-08-06T06:01:54;16.90;99.90
60860;DHT22;46694;54.382;9.708;2023-08-06T06:04:34;16.90;99.90
60860;DHT22;46694;54.382;9.708;2023-08-06T06:07:13;17.00;99.90
60860;DHT22;46694;54.382;9.708;2023-08-06T06:09:52;16.90;99.90
60860;DHT22;46694;54.382;9.708;2023-08-06T06:12:32;16.90;99.90
60860;DHT22;46694;54.382;9.708;2023-08-06T06:15:12;16.90;99.90
60860;DHT22;46694;54.382;9.708;2023-08-06T06:17:51;17.00;99.90
60860;DHT22;46694;54.382;9.708;2023-08-06T06:20:32;17.00;99.90
60860;DHT22;46694;54.382;9.708;2023-08-06T06:23:12;17.00;99.90
60860;DHT22;46694;54.382;9.708;2023-08-06T06:25:52;17.10;99.90
60860;DHT22;46694;54.382;9.708;2023-08-06T06:28:31;17.10;99.90
60860;DHT22;46694;54.382;9.708;2023-08-06T06:31:11;17.20;99.90
60860;DHT22;46694;54.382;9.708;2023-08-06T06:33:50;17.20;99.90
60860;DHT22;46694;54.382;9.708;2023-08-06T06:36:31;17.20;99.90
60860;DHT22;46694;54.382;9.708;2023-08-06T06:39:10;17.30;99.90
60860;DHT22;46694;54.382;9.708;2023-08-06T06:41:51;17.30;99.90
60860;DHT22;46694;54.382;9.708;2023-08-06T06:47:46;17.40;99.90
60860;DHT22;46694;54.382;9.708;2023-08-06T06:50:26;17.50;99.90
60860;DHT22;46694;54.382;9.708;2023-08-06T06:53:06;17.50;99.90
60860;DHT22;46694;54.382;9.708;2023-08-06T06:55:45;17.60;99.90
60860;DHT22;46694;54.382;9.708;2023-08-06T06:58:28;17.60;99.90
60860;DHT22;46694;54.382;9.708;2023-08-06T07:01:08;17.60;99.90
60860;DHT22;46694;54.382;9.708;2023-08-06T07:03:48;17.60;99.90
60860;DHT22;46694;54.382;9.708;2023-08-06T07:06:28;17.60;99.90
60860;DHT22;46694;54.382;9.708;2023-08-06T07:09:08;17.60;99.90
60860;DHT22;46694;54.382;9.708;2023-08-06T07:11:47;17.70;99.90
60860;DHT22;46694;54.382;9.708;2023-08-06T07:14:28;17.70;99.90
60860;DHT22;46694;54.382;9.708;2023-08-06T07:17:11;17.70;99.90
60860;DHT22;46694;54.382;9.708;2023-08-06T07:19:51;17.70;99.90
60860;DHT22;46694;54.382;9.708;2023-08-06T07:22:30;17.80;99.90
60860;DHT22;46694;54.382;9.708;2023-08-06T07:25:10;17.80;99.90
60860;DHT22;46694;54.382;9.708;2023-08-06T07:27:49;17.80;99.90
60860;DHT22;46694;54.382;9.708;2023-08-06T07:30:29;17.90;99.90
60860;DHT22;46694;54.382;9.708;2023-08-06T07:33:09;17.90;99.90
60860;DHT22;46694;54.382;9.708;2023-08-06T07:35:49;18.00;99.90
60860;DHT22;46694;54.382;9.708;2023-08-06T07:38:40;18.00;99.90
60860;DHT22;46694;54.382;9.708;2023-08-06T07:41:20;18.10;99.90
60860;DHT22;46694;54.382;9.708;2023-08-06T07:43:59;18.10;99.90
60860;DHT22;46694;54.382;9.708;2023-08-06T07:46:39;18.20;99.90
60860;DHT22;46694;54.382;9.708;2023-08-06T07:49:19;18.20;99.90
60860;DHT22;46694;54.382;9.708;2023-08-06T07:51:58;18.20;99.90
60860;DHT22;46694;54.382;9.708;2023-08-06T07:54:38;18.20;99.90
60860;DHT22;46694;54.382;9.708;2023-08-06T07:57:17;18.20;99.90
60860;DHT22;46694;54.382;9.708;2023-08-06T07:59:57;18.10;99.90
60860;DHT22;46694;54.382;9.708;2023-08-06T08:02:36;18.10;99.90
60860;DHT22;46694;54.382;9.708;2023-08-06T08:05:16;18.10;99.90
60860;DHT22;46694;54.382;9.708;2023-08-06T08:07:55;18.00;99.90
60860;DHT22;46694;54.382;9.708;2023-08-06T08:10:35;18.00;99.90
60860;DHT22;46694;54.382;9.708;2023-08-06T08:13:17;18.10;99.90
60860;DHT22;46694;54.382;9.708;2023-08-06T08:16:00;18.10;99.90
60860;DHT22;46694;54.382;9.708;2023-08-06T08:18:40;18.20;99.90
60860;DHT22;46694;54.382;9.708;2023-08-06T08:21:27;18.20;99.90
60860;DHT22;46694;54.382;9.708;2023-08-06T08:24:07;18.30;99.90
60860;DHT22;46694;54.382;9.708;2023-08-06T08:26:47;18.30;99.90
60860;DHT22;46694;54.382;9.708;2023-08-06T08:29:26;18.30;99.90
60860;DHT22;46694;54.382;9.708;2023-08-06T08:32:06;18.40;99.90
60860;DHT22;46694;54.382;9.708;2023-08-06T08:34:54;18.40;99.90
60860;DHT22;46694;54.382;9.708;2023-08-06T08:37:33;18.50;99.90
60860;DHT22;46694;54.382;9.708;2023-08-06T08:40:14;18.50;99.90
60860;DHT22;46694;54.382;9.708;2023-08-06T08:42:55;18.50;99.90
60860;DHT22;46694;54.382;9.708;2023-08-06T08:45:35;18.50;99.90
60860;DHT22;46694;54.382;9.708;2023-08-06T08:48:18;18.50;99.90
60860;DHT22;46694;54.382;9.708;2023-08-06T08:50:59;18.50;99.90
60860;DHT22;46694;54.382;9.708;2023-08-06T08:53:39;18.50;99.90
60860;DHT22;46694;54.382;9.708;2023-08-06T08:56:19;18.50;99.90
60860;DHT22;46694;54.382;9.708;2023-08-06T08:59:00;18.50;99.90
60860;DHT22;46694;54.382;9.708;2023-08-06T09:01:40;18.60;99.90
60860;DHT22;46694;54.382;9.708;2023-08-06T09:04:21;18.60;99.90
60860;DHT22;46694;54.382;9.708;2023-08-06T09:07:02;18.80;99.90
60860;DHT22;46694;54.382;9.708;2023-08-06T09:09:43;18.90;99.90
60860;DHT22;46694;54.382;9.708;2023-08-06T09:12:26;18.90;99.90
60860;DHT22;46694;54.382;9.708;2023-08-06T09:15:06;18.90;99.90
60860;DHT22;46694;54.382;9.708;2023-08-06T09:17:54;18.90;99.90
60860;DHT22;46694;54.382;9.708;2023-08-06T09:20:34;19.00;99.90
60860;DHT22;46694;54.382;9.708;2023-08-06T09:23:13;19.10;99.90
60860;DHT22;46694;54.382;9.708;2023-08-06T09:25:53;19.20;99.90
60860;DHT22;46694;54.382;9.708;2023-08-06T09:28:37;19.30;99.90
60860;DHT22;46694;54.382;9.708;2023-08-06T09:31:21;19.40;99.90
60860;DHT22;46694;54.382;9.708;2023-08-06T09:34:02;19.40;99.90
60860;DHT22;46694;54.382;9.708;2023-08-06T09:36:42;19.40;99.90
60860;DHT22;46694;54.382;9.708;2023-08-06T09:39:27;19.50;99.90
60860;DHT22;46694;54.382;9.708;2023-08-06T09:42:07;19.50;99.90
60860;DHT22;46694;54.382;9.708;2023-08-06T09:44:47;19.50;99.90
60860;DHT22;46694;54.382;9.708;2023-08-06T09:47:29;19.50;99.90
60860;DHT22;46694;54.382;9.708;2023-08-06T09:50:16;19.50;99.90
60860;DHT22;46694;54.382;9.708;2023-08-06T09:53:00;19.50;99.90
60860;DHT22;46694;54.382;9.708;2023-08-06T09:55:40;19.60;99.90
60860;DHT22;46694;54.382;9.708;2023-08-06T09:58:21;19.70;99.90
60860;DHT22;46694;54.382;9.708;2023-08-06T10:01:02;19.80;99.90
60860;DHT22;46694;54.382;9.708;2023-08-06T10:03:43;19.90;99.90
60860;DHT22;46694;54.382;9.708;2023-08-06T10:06:24;19.90;99.90
60860;DHT22;46694;54.382;9.708;2023-08-06T10:09:04;19.90;99.90
60860;DHT22;46694;54.382;9.708;2023-08-06T10:11:51;19.90;99.90
60860;DHT22;46694;54.382;9.708;2023-08-06T10:14:36;20.00;99.90
60860;DHT22;46694;54.382;9.708;2023-08-06T10:17:17;20.10;99.90
60860;DHT22;46694;54.382;9.708;2023-08-06T10:19:56;20.20;99.90
60860;DHT22;46694;54.382;9.708;2023-08-06T10:22:36;20.20;99.90
60860;DHT22;46694;54.382;9.708;2023-08-06T10:25:18;20.30;99.90
60860;DHT22;46694;54.382;9.708;2023-08-06T10:27:58;20.40;99.90
60860;DHT22;46694;54.382;9.708;2023-08-06T10:30:47;20.50;99.90
60860;DHT22;46694;54.382;9.708;2023-08-06T10:33:43;20.60;99.90
60860;DHT22;46694;54.382;9.708;2023-08-06T10:36:26;20.70;99.90
60860;DHT22;46694;54.382;9.708;2023-08-06T10:39:06;20.70;99.90
60860;DHT22;46694;54.382;9.708;2023-08-06T10:41:45;20.60;99.90
60860;DHT22;46694;54.382;9.708;2023-08-06T10:44:25;20.60;99.90
60860;DHT22;46694;54.382;9.708;2023-08-06T10:47:37;20.60;99.90
60860;DHT22;46694;54.382;9.708;2023-08-06T10:50:18;20.70;99.90
60860;DHT22;46694;54.382;9.708;2023-08-06T10:53:03;20.70;99.90
60860;DHT22;46694;54.382;9.708;2023-08-06T10:55:43;20.70;99.90
60860;DHT22;46694;54.382;9.708;2023-08-06T10:58:23;20.70;99.90
60860;DHT22;46694;54.382;9.708;2023-08-06T11:01:02;20.80;99.90
60860;DHT22;46694;54.382;9.708;2023-08-06T11:03:44;20.70;99.90
60860;DHT22;46694;54.382;9.708;2023-08-06T11:06:24;20.70;99.90
60860;DHT22;46694;54.382;9.708;2023-08-06T11:09:05;20.80;99.90
60860;DHT22;46694;54.382;9.708;2023-08-06T11:11:44;20.80;99.90
60860;DHT22;46694;54.382;9.708;2023-08-06T11:14:24;20.90;99.90
60860;DHT22;46694;54.382;9.708;2023-08-06T11:17:04;20.90;99.90
60860;DHT22;46694;54.382;9.708;2023-08-06T11:19:44;20.90;99.90
60860;DHT22;46694;54.382;9.708;2023-08-06T11:22:24;21.00;99.90
60860;DHT22;46694;54.382;9.708;2023-08-06T11:25:05;21.00;99.90
60860;DHT22;46694;54.382;9.708;2023-08-06T11:27:45;21.00;99.90
60860;DHT22;46694;54.382;9.708;2023-08-06T11:30:26;21.00;99.90
60860;DHT22;46694;54.382;9.708;2023-08-06T11:33:07;21.20;99.90
60860;DHT22;46694;54.382;9.708;2023-08-06T11:35:49;21.30;99.90
60860;DHT22;46694;54.382;9.708;2023-08-06T11:38:29;21.20;99.90
60860;DHT22;46694;54.382;9.708;2023-08-06T11:41:08;21.20;99.90
60860;DHT22;46694;54.382;9.708;2023-08-06T11:43:48;21.20;99.90
60860;DHT22;46694;54.382;9.708;2023-08-06T11:46:28;21.30;99.90
60860;DHT22;46694;54.382;9.708;2023-08-06T11:49:07;21.40;99.90
60860;DHT22;46694;54.382;9.708;2023-08-06T11:51:50;21.50;99.90
60860;DHT22;46694;54.382;9.708;2023-08-06T11:54:32;21.50;99.90
60860;DHT22;46694;54.382;9.708;2023-08-06T11:57:13;21.30;99.90
60860;DHT22;46694;54.382;9.708;2023-08-06T11:59:53;21.30;99.90
60860;DHT22;46694;54.382;9.708;2023-08-06T12:02:33;21.20;99.90
60860;DHT22;46694;54.382;9.708;2023-08-06T12:05:18;21.10;99.90
60860;DHT22;46694;54.382;9.708;2023-08-06T12:08:02;21.10;99.90
60860;DHT22;46694;54.382;9.708;2023-08-06T12:10:43;21.20;99.90
60860;DHT22;46694;54.382;9.708;2023-08-06T12:13:22;21.20;99.90
60860;DHT22;46694;54.382;9.708;2023-08-06T12:16:02;21.20;99.90
60860;DHT22;46694;54.382;9.708;2023-08-06T12:18:41;21.30;99.90
60860;DHT22;46694;54.382;9.708;2023-08-06T12:21:21;21.20;99.90
60860;DHT22;46694;54.382;9.708;2023-08-06T12:24:00;21.10;99.90
60860;DHT22;46694;54.382;9.708;2023-08-06T12:26:40;21.00;99.90
60860;DHT22;46694;54.382;9.708;2023-08-06T12:29:19;20.80;99.90
60860;DHT22;46694;54.382;9.708;2023-08-06T12:31:59;20.80;99.90
60860;DHT22;46694;54.382;9.708;2023-08-06T12:34:42;20.80;99.90
60860;DHT22;46694;54.382;9.708;2023-08-06T12:37:23;20.90;99.90
60860;DHT22;46694;54.382;9.708;2023-08-06T12:40:04;21.00;99.90
60860;DHT22;46694;54.382;9.708;2023-08-06T12:42:44;21.10;99.90
60860;DHT22;46694;54.382;9.708;2023-08-06T12:45:23;21.20;99.90
60860;DHT22;46694;54.382;9.708;2023-08-06T12:48:03;21.30;99.90
60860;DHT22;46694;54.382;9.708;2023-08-06T12:50:43;21.30;99.90
60860;DHT22;46694;54.382;9.708;2023-08-06T12:53:23;21.40;99.90
60860;DHT22;46694;54.382;9.708;2023-08-06T12:56:03;21.50;99.90
60860;DHT22;46694;54.382;9.708;2023-08-06T12:58:43;21.50;99.90
60860;DHT22;46694;54.382;9.708;2023-08-06T13:01:23;21.50;99.90
60860;DHT22;46694;54.382;9.708;2023-08-06T13:04:02;21.60;99.90
60860;DHT22;46694;54.382;9.708;2023-08-06T13:06:42;21.80;99.90
60860;DHT22;46694;54.382;9.708;2023-08-06T13:09:22;21.80;99.90
60860;DHT22;46694;54.382;9.708;2023-08-06T13:12:01;21.70;99.90
60860;DHT22;46694;54.382;9.708;2023-08-06T13:14:44;21.60;99.90
60860;DHT22;46694;54.382;9.708;2023-08-06T13:17:24;21.60;99.90
60860;DHT22;46694;54.382;9.708;2023-08-06T13:20:04;21.50;99.90
60860;DHT22;46694;54.382;9.708;2023-08-06T13:22:45;21.60;99.90
60860;DHT22;46694;54.382;9.708;2023-08-06T13:25:25;21.60;99.90
60860;DHT22;46694;54.382;9.708;2023-08-06T13:28:05;21.60;99.90
60860;DHT22;46694;54.382;9.708;2023-08-06T13:30:57;21.60;99.90
60860;DHT22;46694;54.382;9.708;2023-08-06T13:33:36;21.70;99.90
60860;DHT22;46694;54.382;9.708;2023-08-06T13:36:16;21.70;99.90
60860;DHT22;46694;54.382;9.708;2023-08-06T13:38:56;21.80;99.90
60860;DHT22;46694;54.382;9.708;2023-08-06T13:41:37;21.90;99.90
60860;DHT22;46694;54.382;9.708;2023-08-06T13:44:18;22.00;99.90
60860;DHT22;46694;54.382;9.708;2023-08-06T13:46:58;22.10;99.90
60860;DHT22;46694;54.382;9.708;2023-08-06T13:49:37;22.10;99.90
60860;DHT22;46694;54.382;9.708;2023-08-06T13:52:17;22.10;99.90
60860;DHT22;46694;54.382;9.708;2023-08-06T13:54:57;22.10;99.90
60860;DHT22;46694;54.382;9.708;2023-08-06T13:57:36;22.10;99.90
60860;DHT22;46694;54.382;9.708;2023-08-06T14:00:16;22.20;99.90
60860;DHT22;46694;54.382;9.708;2023-08-06T14:02:55;22.20;99.90
60860;DHT22;46694;54.382;9.708;2023-08-06T14:05:35;22.20;99.90
60860;DHT22;46694;54.382;9.708;2023-08-06T14:08:15;22.20;99.90
60860;DHT22;46694;54.382;9.708;2023-08-06T14:10:57;22.20;99.90
60860;DHT22;46694;54.382;9.708;2023-08-06T14:13:37;22.20;99.90
60860;DHT22;46694;54.382;9.708;2023-08-06T14:16:19;22.20;99.90
60860;DHT22;46694;54.382;9.708;2023-08-06T14:18:58;22.10;99.90
60860;DHT22;46694;54.382;9.708;2023-08-06T14:21:38;22.00;99.90
60860;DHT22;46694;54.382;9.708;2023-08-06T14:24:18;22.00;99.90
60860;DHT22;46694;54.382;9.708;2023-08-06T14:26:58;22.00;99.90
60860;DHT22;46694;54.382;9.708;2023-08-06T14:29:37;22.00;99.90
60860;DHT22;46694;54.382;9.708;2023-08-06T14:32:17;21.90;99.90
60860;DHT22;46694;54.382;9.708;2023-08-06T14:34:57;22.00;99.90
60860;DHT22;46694;54.382;9.708;2023-08-06T14:37:37;21.90;99.90
60860;DHT22;46694;54.382;9.708;2023-08-06T14:40:18;22.00;99.90
60860;DHT22;46694;54.382;9.708;2023-08-06T14:42:57;22.10;99.90
60860;DHT22;46694;54.382;9.708;2023-08-06T14:45:38;22.10;99.90
60860;DHT22;46694;54.382;9.708;2023-08-06T14:48:18;22.10;99.90
60860;DHT22;46694;54.382;9.708;2023-08-06T14:50:58;22.20;99.90
60860;DHT22;46694;54.382;9.708;2023-08-06T14:53:37;22.20;99.90
60860;DHT22;46694;54.382;9.708;2023-08-06T14:56:17;22.10;99.90
60860;DHT22;46694;54.382;9.708;2023-08-06T14:58:59;22.10;99.90
60860;DHT22;46694;54.382;9.708;2023-08-06T15:01:39;22.00;99.90
60860;DHT22;46694;54.382;9.708;2023-08-06T15:04:19;22.00;99.90
60860;DHT22;46694;54.382;9.708;2023-08-06T15:07:00;21.90;99.90
60860;DHT22;46694;54.382;9.708;2023-08-06T15:09:41;21.80;99.90
60860;DHT22;46694;54.382;9.708;2023-08-06T15:12:22;21.80;99.90
60860;DHT22;46694;54.382;9.708;2023-08-06T15:15:02;21.80;99.90
60860;DHT22;46694;54.382;9.708;2023-08-06T15:17:43;21.80;99.90
60860;DHT22;46694;54.382;9.708;2023-08-06T15:20:27;21.70;99.90
60860;DHT22;46694;54.382;9.708;2023-08-06T15:23:07;21.70;99.90
60860;DHT22;46694;54.382;9.708;2023-08-06T15:25:47;21.60;99.90
60860;DHT22;46694;54.382;9.708;2023-08-06T15:28:26;21.60;99.90
60860;DHT22;46694;54.382;9.708;2023-08-06T15:31:06;21.50;99.90
60860;DHT22;46694;54.382;9.708;2023-08-06T15:33:50;21.40;99.90
60860;DHT22;46694;54.382;9.708;2023-08-06T15:36:36;21.40;99.90
60860;DHT22;46694;54.382;9.708;2023-08-06T15:39:16;21.40;99.90
60860;DHT22;46694;54.382;9.708;2023-08-06T15:41:56;21.40;99.90
60860;DHT22;46694;54.382;9.708;2023-08-06T15:44:36;21.40;99.90
60860;DHT22;46694;54.382;9.708;2023-08-06T15:47:15;21.40;99.90
60860;DHT22;46694;54.382;9.708;2023-08-06T15:49:55;21.40;99.90
60860;DHT22;46694;54.382;9.708;2023-08-06T15:52:35;21.40;99.90
60860;DHT22;46694;54.382;9.708;2023-08-06T15:55:14;21.50;99.90
60860;DHT22;46694;54.382;9.708;2023-08-06T15:57:56;21.70;99.90
60860;DHT22;46694;54.382;9.708;2023-08-06T16:00:39;21.80;99.90
60860;DHT22;46694;54.382;9.708;2023-08-06T16:03:19;21.80;99.90
60860;DHT22;46694;54.382;9.708;2023-08-06T16:06:01;21.80;99.90
60860;DHT22;46694;54.382;9.708;2023-08-06T16:08:48;21.80;99.90
60860;DHT22;46694;54.382;9.708;2023-08-06T16:11:28;21.80;99.90
60860;DHT22;46694;54.382;9.708;2023-08-06T16:14:09;21.80;99.90
60860;DHT22;46694;54.382;9.708;2023-08-06T16:16:48;21.80;99.90
60860;DHT22;46694;54.382;9.708;2023-08-06T16:19:28;21.70;99.90
60860;DHT22;46694;54.382;9.708;2023-08-06T16:22:11;21.70;99.90
60860;DHT22;46694;54.382;9.708;2023-08-06T16:24:51;21.70;99.90
60860;DHT22;46694;54.382;9.708;2023-08-06T16:27:40;21.80;99.90
60860;DHT22;46694;54.382;9.708;2023-08-06T16:30:19;21.80;99.90
60860;DHT22;46694;54.382;9.708;2023-08-06T16:33:00;21.70;99.90
60860;DHT22;46694;54.382;9.708;2023-08-06T16:35:40;21.70;99.90
60860;DHT22;46694;54.382;9.708;2023-08-06T16:38:20;21.70;99.90
60860;DHT22;46694;54.382;9.708;2023-08-06T16:41:01;21.70;99.90
60860;DHT22;46694;54.382;9.708;2023-08-06T16:43:42;21.70;99.90
60860;DHT22;46694;54.382;9.708;2023-08-06T16:46:21;21.80;99.90
60860;DHT22;46694;54.382;9.708;2023-08-06T16:49:01;21.80;99.90
60860;DHT22;46694;54.382;9.708;2023-08-06T16:51:41;21.80;99.90
60860;DHT22;46694;54.382;9.708;2023-08-06T16:54:39;21.80;99.90
60860;DHT22;46694;54.382;9.708;2023-08-06T16:57:18;21.80;99.90
60860;DHT22;46694;54.382;9.708;2023-08-06T17:00:02;21.70;99.90
60860;DHT22;46694;54.382;9.708;2023-08-06T17:02:42;21.60;99.90